sensor_id;sensor_type;location;lat;lon;timestamp;temperature;humidity
13328;DHT22;6733;51.044;3.746;2023-02-13T00:00:10;9.80;99.90
13328;DHT22;6733;51.044;3.746;2023-02-13T00:02:37;9.80;99.90
13328;DHT22;6733;51.044;3.746;2023-02-13T00:05:03;9.80;99.90
13328;DHT22;6733;51.044;3.746;2023-02-13T00:07:29;9.80;99.90
13328;DHT22;6733;51.044;3.746;2023-02-13T00:09:55;9.80;99.90
13328;DHT22;6733;51.044;3.746;2023-02-13T00:12:21;9.80;99.90
13328;DHT22;6733;51.044;3.746;2023-02-13T00:14:47;9.80;99.90
13328;DHT22;6733;51.044;3.746;2023-02-13T00:17:13;9.80;99.90
13328;DHT22;6733;51.044;3.746;2023-02-13T00:19:40;9.70;99.90
13328;DHT22;6733;51.044;3.746;2023-02-13T00:22:07;9.80;99.90
13328;DHT22;6733;51.044;3.746;2023-02-13T00:24:33;9.80;99.90
13328;DHT22;6733;51.044;3.746;2023-02-13T00:27:00;9.80;99.90
13328;DHT22;6733;51.044;3.746;2023-02-13T00:29:26;9.70;99.90
13328;DHT22;6733;51.044;3.746;2023-02-13T00:31:52;9.70;99.90
13328;DHT22;6733;51.044;3.746;2023-02-13T00:34:18;9.70;99.90
13328;DHT22;6733;51.044;3.746;2023-02-13T00:36:44;9.70;99.90
13328;DHT22;6733;51.044;3.746;2023-02-13T00:39:11;9.70;99.90
13328;DHT22;6733;51.044;3.746;2023-02-13T00:41:38;9.70;99.90
13328;DHT22;6733;51.044;3.746;2023-02-13T00:44:04;9.70;99.90
13328;DHT22;6733;51.044;3.746;2023-02-13T00:46:30;9.70;99.90
13328;DHT22;6733;51.044;3.746;2023-02-13T00:48:56;9.70;99.90
13328;DHT22;6733;51.044;3.746;2023-02-13T00:51:22;9.70;99.90
13328;DHT22;6733;51.044;3.746;2023-02-13T00:53:48;9.70;99.90
13328;DHT22;6733;51.044;3.746;2023-02-13T00:56:14;9.70;99.90
13328;DHT22;6733;51.044;3.746;2023-02-13T00:58:41;9.70;99.90
13328;DHT22;6733;51.044;3.746;2023-02-13T01:01:07;9.60;99.90
13328;DHT22;6733;51.044;3.746;2023-02-13T01:03:33;9.60;99.90
13328;DHT22;6733;51.044;3.746;2023-02-13T01:05:59;9.60;99.90
13328;DHT22;6733;51.044;3.746;2023-02-13T01:08:25;9.60;99.90
13328;DHT22;6733;51.044;3.746;2023-02-13T01:10:54;9.60;99.90
13328;DHT22;6733;51.044;3.746;2023-02-13T01:13:20;9.60;99.90
13328;DHT22;6733;51.044;3.746;2023-02-13T01:15:47;9.60;99.90
13328;DHT22;6733;51.044;3.746;2023-02-13T01:18:15;9.60;99.90
13328;DHT22;6733;51.044;3.746;2023-02-13T01:20:42;9.60;99.90
13328;DHT22;6733;51.044;3.746;2023-02-13T01:23:10;9.50;99.90
13328;DHT22;6733;51.044;3.746;2023-02-13T01:25:42;9.50;99.90
13328;DHT22;6733;51.044;3.746;2023-02-13T01:28:08;9.50;99.90
13328;DHT22;6733;51.044;3.746;2023-02-13T01:30:35;9.40;99.90
13328;DHT22;6733;51.044;3.746;2023-02-13T01:33:01;9.40;99.90
13328;DHT22;6733;51.044;3.746;2023-02-13T01:35:28;9.30;99.90
13328;DHT22;6733;51.044;3.746;2023-02-13T01:37:54;9.30;99.90
13328;DHT22;6733;51.044;3.746;2023-02-13T01:40:20;9.20;99.90
13328;DHT22;6733;51.044;3.746;2023-02-13T01:42:46;9.10;99.90
13328;DHT22;6733;51.044;3.746;2023-02-13T01:45:23;9.00;99.90
13328;DHT22;6733;51.044;3.746;2023-02-13T01:47:53;8.90;99.90
13328;DHT22;6733;51.044;3.746;2023-02-13T01:50:30;8.80;99.90
13328;DHT22;6733;51.044;3.746;2023-02-13T01:55:48;8.60;99.90
13328;DHT22;6733;51.044;3.746;2023-02-13T01:58:19;8.50;99.90
13328;DHT22;6733;51.044;3.746;2023-02-13T02:00:46;8.40;99.90
13328;DHT22;6733;51.044;3.746;2023-02-13T02:03:20;8.30;99.90
13328;DHT22;6733;51.044;3.746;2023-02-13T02:05:49;8.20;99.90
13328;DHT22;6733;51.044;3.746;2023-02-13T02:08:16;8.10;99.90
13328;DHT22;6733;51.044;3.746;2023-02-13T02:10:44;8.10;99.90
13328;DHT22;6733;51.044;3.746;2023-02-13T02:13:15;8.00;99.90
13328;DHT22;6733;51.044;3.746;2023-02-13T02:15:44;7.90;99.90
13328;DHT22;6733;51.044;3.746;2023-02-13T02:18:18;7.90;99.90
13328;DHT22;6733;51.044;3.746;2023-02-13T02:29:16;7.60;99.90
13328;DHT22;6733;51.044;3.746;2023-02-13T02:42:48;7.40;99.90
13328;DHT22;6733;51.044;3.746;2023-02-13T02:45:52;7.30;99.90
13328;DHT22;6733;51.044;3.746;2023-02-13T02:48:39;7.20;99.90
13328;DHT22;6733;51.044;3.746;2023-02-13T02:51:38;7.20;99.90
13328;DHT22;6733;51.044;3.746;2023-02-13T02:54:14;7.20;99.90
13328;DHT22;6733;51.044;3.746;2023-02-13T02:57:11;7.10;99.90
13328;DHT22;6733;51.044;3.746;2023-02-13T02:59:40;7.10;99.90
13328;DHT22;6733;51.044;3.746;2023-02-13T03:02:25;7.00;99.90
13328;DHT22;6733;51.044;3.746;2023-02-13T03:05:26;7.00;99.90
13328;DHT22;6733;51.044;3.746;2023-02-13T03:08:13;7.00;99.90
13328;DHT22;6733;51.044;3.746;2023-02-13T03:10:40;6.90;99.90
13328;DHT22;6733;51.044;3.746;2023-02-13T03:13:41;6.90;99.90
13328;DHT22;6733;51.044;3.746;2023-02-13T03:16:18;6.80;99.90
13328;DHT22;6733;51.044;3.746;2023-02-13T03:19:03;6.80;99.90
13328;DHT22;6733;51.044;3.746;2023-02-13T03:21:57;6.70;99.90
13328;DHT22;6733;51.044;3.746;2023-02-13T03:24:51;6.70;99.90
13328;DHT22;6733;51.044;3.746;2023-02-13T03:27:49;6.60;99.90
13328;DHT22;6733;51.044;3.746;2023-02-13T03:33:34;6.50;99.90
13328;DHT22;6733;51.044;3.746;2023-02-13T03:38:56;6.50;99.90
13328;DHT22;6733;51.044;3.746;2023-02-13T03:42:09;6.40;99.90
13328;DHT22;6733;51.044;3.746;2023-02-13T03:44:45;6.40;99.90
13328;DHT22;6733;51.044;3.746;2023-02-13T03:47:34;6.40;99.90
13328;DHT22;6733;51.044;3.746;2023-02-13T03:50:00;6.40;99.90
13328;DHT22;6733;51.044;3.746;2023-02-13T03:55:05;6.30;99.90
13328;DHT22;6733;51.044;3.746;2023-02-13T03:57:53;6.30;99.90
13328;DHT22;6733;51.044;3.746;2023-02-13T04:00:43;6.30;99.90
13328;DHT22;6733;51.044;3.746;2023-02-13T04:06:12;6.20;99.90
13328;DHT22;6733;51.044;3.746;2023-02-13T04:08:38;6.20;99.90
13328;DHT22;6733;51.044;3.746;2023-02-13T04:11:23;6.20;99.90
13328;DHT22;6733;51.044;3.746;2023-02-13T04:13:58;6.20;99.90
13328;DHT22;6733;51.044;3.746;2023-02-13T04:18:55;6.10;99.90
13328;DHT22;6733;51.044;3.746;2023-02-13T04:21:22;6.10;99.90
13328;DHT22;6733;51.044;3.746;2023-02-13T04:23:49;6.00;99.90
13328;DHT22;6733;51.044;3.746;2023-02-13T04:26:20;6.00;99.90
13328;DHT22;6733;51.044;3.746;2023-02-13T04:28:48;6.00;99.90
13328;DHT22;6733;51.044;3.746;2023-02-13T04:31:14;6.00;99.90
13328;DHT22;6733;51.044;3.746;2023-02-13T04:33:40;6.00;99.90
13328;DHT22;6733;51.044;3.746;2023-02-13T04:36:06;5.90;99.90
13328;DHT22;6733;51.044;3.746;2023-02-13T04:38:32;5.90;99.90
13328;DHT22;6733;51.044;3.746;2023-02-13T04:40:59;5.90;99.90
13328;DHT22;6733;51.044;3.746;2023-02-13T04:43:25;5.90;99.90
13328;DHT22;6733;51.044;3.746;2023-02-13T04:45:51;5.90;99.90
13328;DHT22;6733;51.044;3.746;2023-02-13T04:48:17;5.90;99.90
13328;DHT22;6733;51.044;3.746;2023-02-13T04:50:43;5.90;99.90
13328;DHT22;6733;51.044;3.746;2023-02-13T04:53:09;5.80;99.90
13328;DHT22;6733;51.044;3.746;2023-02-13T04:55:36;5.80;99.90
13328;DHT22;6733;51.044;3.746;2023-02-13T04:58:02;5.80;99.90
13328;DHT22;6733;51.044;3.746;2023-02-13T05:00:28;5.80;99.90
13328;DHT22;6733;51.044;3.746;2023-02-13T05:03:01;5.70;99.90
13328;DHT22;6733;51.044;3.746;2023-02-13T05:05:29;5.70;99.90
13328;DHT22;6733;51.044;3.746;2023-02-13T05:07:55;5.70;99.90
13328;DHT22;6733;51.044;3.746;2023-02-13T05:10:21;5.70;99.90
13328;DHT22;6733;51.044;3.746;2023-02-13T05:12:47;5.60;99.90
13328;DHT22;6733;51.044;3.746;2023-02-13T05:15:13;5.60;99.90
13328;DHT22;6733;51.044;3.746;2023-02-13T05:17:42;5.60;99.90
13328;DHT22;6733;51.044;3.746;2023-02-13T05:20:09;5.50;99.90
13328;DHT22;6733;51.044;3.746;2023-02-13T05:22:36;5.50;99.90
13328;DHT22;6733;51.044;3.746;2023-02-13T05:25:20;5.50;99.90
13328;DHT22;6733;51.044;3.746;2023-02-13T05:27:46;5.50;99.90
13328;DHT22;6733;51.044;3.746;2023-02-13T05:30:13;5.50;99.90
13328;DHT22;6733;51.044;3.746;2023-02-13T05:32:39;5.40;99.90
13328;DHT22;6733;51.044;3.746;2023-02-13T05:35:08;5.50;99.90
13328;DHT22;6733;51.044;3.746;2023-02-13T05:37:35;5.50;99.90
13328;DHT22;6733;51.044;3.746;2023-02-13T05:40:01;5.50;99.90
13328;DHT22;6733;51.044;3.746;2023-02-13T05:42:27;5.50;99.90
13328;DHT22;6733;51.044;3.746;2023-02-13T05:44:53;5.60;99.90
13328;DHT22;6733;51.044;3.746;2023-02-13T05:47:19;5.70;99.90
13328;DHT22;6733;51.044;3.746;2023-02-13T05:49:45;5.70;99.90
13328;DHT22;6733;51.044;3.746;2023-02-13T05:52:11;5.80;99.90
13328;DHT22;6733;51.044;3.746;2023-02-13T05:54:37;5.80;99.90
13328;DHT22;6733;51.044;3.746;2023-02-13T05:57:04;5.90;99.90
13328;DHT22;6733;51.044;3.746;2023-02-13T05:59:30;5.90;99.90
13328;DHT22;6733;51.044;3.746;2023-02-13T06:01:56;5.90;99.90
13328;DHT22;6733;51.044;3.746;2023-02-13T06:04:22;6.00;99.90
13328;DHT22;6733;51.044;3.746;2023-02-13T06:06:48;6.00;99.90
13328;DHT22;6733;51.044;3.746;2023-02-13T06:09:14;6.00;99.90
13328;DHT22;6733;51.044;3.746;2023-02-13T06:11:40;6.00;99.90
13328;DHT22;6733;51.044;3.746;2023-02-13T06:14:07;6.00;99.90
13328;DHT22;6733;51.044;3.746;2023-02-13T06:16:33;6.00;99.90
13328;DHT22;6733;51.044;3.746;2023-02-13T06:18:59;6.00;99.90
13328;DHT22;6733;51.044;3.746;2023-02-13T06:21:26;5.90;99.90
13328;DHT22;6733;51.044;3.746;2023-02-13T06:23:52;5.90;99.90
13328;DHT22;6733;51.044;3.746;2023-02-13T06:26:18;5.90;99.90
13328;DHT22;6733;51.044;3.746;2023-02-13T06:28:44;5.90;99.90
13328;DHT22;6733;51.044;3.746;2023-02-13T06:31:10;5.90;99.90
13328;DHT22;6733;51.044;3.746;2023-02-13T06:33:37;5.80;99.90
13328;DHT22;6733;51.044;3.746;2023-02-13T06:36:03;5.80;99.90
13328;DHT22;6733;51.044;3.746;2023-02-13T06:38:29;5.80;99.90
13328;DHT22;6733;51.044;3.746;2023-02-13T06:40:59;5.70;99.90
13328;DHT22;6733;51.044;3.746;2023-02-13T06:43:27;5.70;99.90
13328;DHT22;6733;51.044;3.746;2023-02-13T06:45:53;5.70;99.90
13328;DHT22;6733;51.044;3.746;2023-02-13T06:48:19;5.70;99.90
13328;DHT22;6733;51.044;3.746;2023-02-13T06:50:45;5.70;99.90
13328;DHT22;6733;51.044;3.746;2023-02-13T06:53:11;5.70;99.90
13328;DHT22;6733;51.044;3.746;2023-02-13T06:55:37;5.60;99.90
13328;DHT22;6733;51.044;3.746;2023-02-13T06:58:05;5.60;99.90
13328;DHT22;6733;51.044;3.746;2023-02-13T07:00:31;5.60;99.90
13328;DHT22;6733;51.044;3.746;2023-02-13T07:03:02;5.60;99.90
13328;DHT22;6733;51.044;3.746;2023-02-13T07:05:29;5.60;99.90
13328;DHT22;6733;51.044;3.746;2023-02-13T07:07:55;5.60;99.90
13328;DHT22;6733;51.044;3.746;2023-02-13T07:10:21;5.50;99.90
13328;DHT22;6733;51.044;3.746;2023-02-13T07:12:47;5.40;99.90
13328;DHT22;6733;51.044;3.746;2023-02-13T07:15:15;5.40;99.90
13328;DHT22;6733;51.044;3.746;2023-02-13T07:17:41;5.30;99.90
13328;DHT22;6733;51.044;3.746;2023-02-13T07:20:08;5.30;99.90
13328;DHT22;6733;51.044;3.746;2023-02-13T07:22:34;5.30;99.90
13328;DHT22;6733;51.044;3.746;2023-02-13T07:25:02;5.30;99.90
13328;DHT22;6733;51.044;3.746;2023-02-13T07:27:28;5.30;99.90
13328;DHT22;6733;51.044;3.746;2023-02-13T07:29:56;5.30;99.90
13328;DHT22;6733;51.044;3.746;2023-02-13T07:32:23;5.20;99.90
13328;DHT22;6733;51.044;3.746;2023-02-13T07:34:49;5.20;99.90
13328;DHT22;6733;51.044;3.746;2023-02-13T07:37:15;5.20;99.90
13328;DHT22;6733;51.044;3.746;2023-02-13T07:39:41;5.20;99.90
13328;DHT22;6733;51.044;3.746;2023-02-13T07:42:08;5.20;99.90
13328;DHT22;6733;51.044;3.746;2023-02-13T07:44:34;5.20;99.90
13328;DHT22;6733;51.044;3.746;2023-02-13T07:47:00;5.10;99.90
13328;DHT22;6733;51.044;3.746;2023-02-13T07:49:26;5.20;99.90
13328;DHT22;6733;51.044;3.746;2023-02-13T07:51:52;5.30;99.90
13328;DHT22;6733;51.044;3.746;2023-02-13T07:54:20;5.30;99.90
13328;DHT22;6733;51.044;3.746;2023-02-13T07:56:46;5.40;99.90
13328;DHT22;6733;51.044;3.746;2023-02-13T07:59:12;5.30;99.90
13328;DHT22;6733;51.044;3.746;2023-02-13T08:01:39;5.40;99.90
13328;DHT22;6733;51.044;3.746;2023-02-13T08:04:05;4.80;99.90
13328;DHT22;6733;51.044;3.746;2023-02-13T08:06:31;4.20;99.90
13328;DHT22;6733;51.044;3.746;2023-02-13T08:08:57;3.80;99.90
13328;DHT22;6733;51.044;3.746;2023-02-13T08:11:42;3.70;99.90
13328;DHT22;6733;51.044;3.746;2023-02-13T08:14:25;3.60;99.90
13328;DHT22;6733;51.044;3.746;2023-02-13T08:16:52;3.50;99.90
13328;DHT22;6733;51.044;3.746;2023-02-13T08:19:19;3.40;99.90
13328;DHT22;6733;51.044;3.746;2023-02-13T08:21:45;3.50;99.90
13328;DHT22;6733;51.044;3.746;2023-02-13T08:24:11;3.40;99.90
13328;DHT22;6733;51.044;3.746;2023-02-13T08:26:38;3.50;99.90
13328;DHT22;6733;51.044;3.746;2023-02-13T08:29:05;3.60;99.90
13328;DHT22;6733;51.044;3.746;2023-02-13T08:31:32;3.60;99.90
13328;DHT22;6733;51.044;3.746;2023-02-13T08:33:58;3.70;99.90
13328;DHT22;6733;51.044;3.746;2023-02-13T08:36:24;3.70;99.90
13328;DHT22;6733;51.044;3.746;2023-02-13T08:38:50;3.70;99.90
13328;DHT22;6733;51.044;3.746;2023-02-13T08:41:16;3.70;99.90
13328;DHT22;6733;51.044;3.746;2023-02-13T08:43:44;3.70;99.90
13328;DHT22;6733;51.044;3.746;2023-02-13T08:46:10;3.80;99.90
13328;DHT22;6733;51.044;3.746;2023-02-13T08:48:36;4.00;99.90
13328;DHT22;6733;51.044;3.746;2023-02-13T08:51:07;4.10;99.90
13328;DHT22;6733;51.044;3.746;2023-02-13T08:53:34;4.20;99.90
13328;DHT22;6733;51.044;3.746;2023-02-13T08:56:00;4.20;99.90
13328;DHT22;6733;51.044;3.746;2023-02-13T08:58:26;4.30;99.90
13328;DHT22;6733;51.044;3.746;2023-02-13T09:00:53;4.30;99.90
13328;DHT22;6733;51.044;3.746;2023-02-13T09:03:19;4.50;99.90
13328;DHT22;6733;51.044;3.746;2023-02-13T09:05:45;4.50;99.90
13328;DHT22;6733;51.044;3.746;2023-02-13T09:08:12;4.50;99.90
13328;DHT22;6733;51.044;3.746;2023-02-13T09:10:41;4.60;99.90
13328;DHT22;6733;51.044;3.746;2023-02-13T09:13:10;4.80;99.90
13328;DHT22;6733;51.044;3.746;2023-02-13T09:15:38;4.90;99.90
13328;DHT22;6733;51.044;3.746;2023-02-13T09:18:06;5.10;99.90
13328;DHT22;6733;51.044;3.746;2023-02-13T09:20:32;5.20;99.90
13328;DHT22;6733;51.044;3.746;2023-02-13T09:22:58;5.30;99.90
13328;DHT22;6733;51.044;3.746;2023-02-13T09:25:24;5.40;99.90
13328;DHT22;6733;51.044;3.746;2023-02-13T09:27:51;5.50;99.90
13328;DHT22;6733;51.044;3.746;2023-02-13T09:30:17;5.60;99.90
13328;DHT22;6733;51.044;3.746;2023-02-13T09:32:52;5.80;99.90
13328;DHT22;6733;51.044;3.746;2023-02-13T09:35:20;5.90;99.90
13328;DHT22;6733;51.044;3.746;2023-02-13T09:37:46;6.00;99.90
13328;DHT22;6733;51.044;3.746;2023-02-13T09:40:26;6.10;99.90
13328;DHT22;6733;51.044;3.746;2023-02-13T09:43:22;6.30;99.90
13328;DHT22;6733;51.044;3.746;2023-02-13T09:45:50;6.60;99.90
13328;DHT22;6733;51.044;3.746;2023-02-13T09:48:28;6.80;99.90
13328;DHT22;6733;51.044;3.746;2023-02-13T09:50:56;7.00;99.90
13328;DHT22;6733;51.044;3.746;2023-02-13T09:53:23;7.10;99.90
13328;DHT22;6733;51.044;3.746;2023-02-13T09:59:00;7.40;99.90
13328;DHT22;6733;51.044;3.746;2023-02-13T10:01:30;7.60;99.90
13328;DHT22;6733;51.044;3.746;2023-02-13T10:07:19;7.90;99.90
13328;DHT22;6733;51.044;3.746;2023-02-13T10:12:31;8.20;99.90
13328;DHT22;6733;51.044;3.746;2023-02-13T10:17:58;8.70;99.90
13328;DHT22;6733;51.044;3.746;2023-02-13T10:20:36;8.90;99.90
13328;DHT22;6733;51.044;3.746;2023-02-13T10:23:42;9.00;99.90
13328;DHT22;6733;51.044;3.746;2023-02-13T10:26:20;9.20;99.90
13328;DHT22;6733;51.044;3.746;2023-02-13T10:28:58;9.20;99.90
13328;DHT22;6733;51.044;3.746;2023-02-13T10:31:46;9.20;99.90
13328;DHT22;6733;51.044;3.746;2023-02-13T10:34:16;9.40;99.90
13328;DHT22;6733;51.044;3.746;2023-02-13T10:36:45;9.50;99.90
13328;DHT22;6733;51.044;3.746;2023-02-13T10:39:17;9.60;99.90
13328;DHT22;6733;51.044;3.746;2023-02-13T10:42:10;9.90;99.90
13328;DHT22;6733;51.044;3.746;2023-02-13T10:45:15;9.90;99.90
13328;DHT22;6733;51.044;3.746;2023-02-13T10:51:01;10.10;99.90
13328;DHT22;6733;51.044;3.746;2023-02-13T10:59:06;10.20;99.90
13328;DHT22;6733;51.044;3.746;2023-02-13T11:01:52;10.60;99.90
13328;DHT22;6733;51.044;3.746;2023-02-13T11:04:21;10.80;99.90
13328;DHT22;6733;51.044;3.746;2023-02-13T11:06:58;10.80;99.90
13328;DHT22;6733;51.044;3.746;2023-02-13T11:09:26;10.80;99.90
13328;DHT22;6733;51.044;3.746;2023-02-13T11:11:52;10.80;99.90
13328;DHT22;6733;51.044;3.746;2023-02-13T11:14:23;10.70;99.90
13328;DHT22;6733;51.044;3.746;2023-02-13T11:16:52;11.00;99.90
13328;DHT22;6733;51.044;3.746;2023-02-13T11:19:46;11.30;99.90
13328;DHT22;6733;51.044;3.746;2023-02-13T11:22:24;11.30;99.90
13328;DHT22;6733;51.044;3.746;2023-02-13T11:24:56;11.30;99.90
13328;DHT22;6733;51.044;3.746;2023-02-13T11:27:29;11.30;99.90
13328;DHT22;6733;51.044;3.746;2023-02-13T11:33:25;11.80;99.90
13328;DHT22;6733;51.044;3.746;2023-02-13T11:36:26;11.60;99.90
13328;DHT22;6733;51.044;3.746;2023-02-13T11:39:02;11.70;99.90
13328;DHT22;6733;51.044;3.746;2023-02-13T11:41:30;11.90;99.90
13328;DHT22;6733;51.044;3.746;2023-02-13T11:44:01;12.00;99.90
13328;DHT22;6733;51.044;3.746;2023-02-13T11:46:42;12.20;99.90
13328;DHT22;6733;51.044;3.746;2023-02-13T11:49:26;12.20;99.90
13328;DHT22;6733;51.044;3.746;2023-02-13T11:52:01;12.20;99.90
13328;DHT22;6733;51.044;3.746;2023-02-13T11:57:00;12.20;99.90
13328;DHT22;6733;51.044;3.746;2023-02-13T11:59:32;12.20;99.90
13328;DHT22;6733;51.044;3.746;2023-02-13T12:02:30;12.30;99.90
13328;DHT22;6733;51.044;3.746;2023-02-13T12:05:19;12.30;99.90
13328;DHT22;6733;51.044;3.746;2023-02-13T12:07:46;12.30;99.90
13328;DHT22;6733;51.044;3.746;2023-02-13T12:10:24;12.60;99.90
13328;DHT22;6733;51.044;3.746;2023-02-13T12:13:12;12.70;99.90
13328;DHT22;6733;51.044;3.746;2023-02-13T12:15:40;12.90;99.90
13328;DHT22;6733;51.044;3.746;2023-02-13T12:18:27;12.90;99.90
13328;DHT22;6733;51.044;3.746;2023-02-13T12:26:19;12.60;99.90
13328;DHT22;6733;51.044;3.746;2023-02-13T12:59:16;13.00;99.90
13328;DHT22;6733;51.044;3.746;2023-02-13T13:07:59;13.10;99.90
13328;DHT22;6733;51.044;3.746;2023-02-13T13:19:14;13.00;99.90
13328;DHT22;6733;51.044;3.746;2023-02-13T13:26:56;13.20;99.90
13328;DHT22;6733;51.044;3.746;2023-02-13T13:32:02;13.20;99.90
13328;DHT22;6733;51.044;3.746;2023-02-13T13:34:31;13.30;99.90
13328;DHT22;6733;51.044;3.746;2023-02-13T13:50:35;13.10;99.90
13328;DHT22;6733;51.044;3.746;2023-02-13T14:03:41;12.90;99.90
13328;DHT22;6733;51.044;3.746;2023-02-13T14:06:13;12.90;99.90
13328;DHT22;6733;51.044;3.746;2023-02-13T14:13:51;13.00;99.90
13328;DHT22;6733;51.044;3.746;2023-02-13T14:16:56;13.10;99.90
13328;DHT22;6733;51.044;3.746;2023-02-13T14:19:33;13.20;99.90
13328;DHT22;6733;51.044;3.746;2023-02-13T14:24:56;13.40;99.90
13328;DHT22;6733;51.044;3.746;2023-02-13T14:27:28;13.20;99.90
13328;DHT22;6733;51.044;3.746;2023-02-13T14:29:55;13.20;99.90
13328;DHT22;6733;51.044;3.746;2023-02-13T14:32:28;13.20;99.90
13328;DHT22;6733;51.044;3.746;2023-02-13T14:34:59;13.30;99.90
13328;DHT22;6733;51.044;3.746;2023-02-13T14:37:36;13.40;99.90
13328;DHT22;6733;51.044;3.746;2023-02-13T14:42:45;14.00;99.90
13328;DHT22;6733;51.044;3.746;2023-02-13T14:45:15;16.60;99.90
13328;DHT22;6733;51.044;3.746;2023-02-13T14:47:45;18.10;99.90
13328;DHT22;6733;51.044;3.746;2023-02-13T14:50:25;18.40;99.90
13328;DHT22;6733;51.044;3.746;2023-02-13T14:52:53;18.00;99.90
13328;DHT22;6733;51.044;3.746;2023-02-13T14:55:34;18.10;99.90
13328;DHT22;6733;51.044;3.746;2023-02-13T14:58:07;18.50;99.90
13328;DHT22;6733;51.044;3.746;2023-02-13T15:00:43;19.00;99.90
13328;DHT22;6733;51.044;3.746;2023-02-13T15:03:27;19.10;99.90
13328;DHT22;6733;51.044;3.746;2023-02-13T15:05:58;18.90;99.90
13328;DHT22;6733;51.044;3.746;2023-02-13T15:08:41;18.70;99.90
13328;DHT22;6733;51.044;3.746;2023-02-13T15:11:10;18.30;99.90
13328;DHT22;6733;51.044;3.746;2023-02-13T15:14:35;18.80;99.90
13328;DHT22;6733;51.044;3.746;2023-02-13T15:17:26;19.20;99.90
13328;DHT22;6733;51.044;3.746;2023-02-13T15:19:54;19.80;99.90
13328;DHT22;6733;51.044;3.746;2023-02-13T15:22:31;19.90;99.90
13328;DHT22;6733;51.044;3.746;2023-02-13T15:24:58;20.10;99.90
13328;DHT22;6733;51.044;3.746;2023-02-13T15:27:26;19.70;99.90
13328;DHT22;6733;51.044;3.746;2023-02-13T15:30:00;19.70;99.90
13328;DHT22;6733;51.044;3.746;2023-02-13T15:32:31;18.90;99.90
13328;DHT22;6733;51.044;3.746;2023-02-13T15:34:58;19.40;99.90
13328;DHT22;6733;51.044;3.746;2023-02-13T15:37:28;19.70;99.90
13328;DHT22;6733;51.044;3.746;2023-02-13T15:39:54;19.40;99.90
13328;DHT22;6733;51.044;3.746;2023-02-13T15:42:20;19.60;99.90
13328;DHT22;6733;51.044;3.746;2023-02-13T15:44:49;18.50;99.90
13328;DHT22;6733;51.044;3.746;2023-02-13T15:47:25;16.00;99.90
13328;DHT22;6733;51.044;3.746;2023-02-13T15:49:52;14.50;99.90
13328;DHT22;6733;51.044;3.746;2023-02-13T15:52:29;13.80;99.90
13328;DHT22;6733;51.044;3.746;2023-02-13T15:54:58;13.30;99.90
13328;DHT22;6733;51.044;3.746;2023-02-13T15:57:25;13.00;99.90
13328;DHT22;6733;51.044;3.746;2023-02-13T15:59:54;12.80;99.90
13328;DHT22;6733;51.044;3.746;2023-02-13T16:02:41;12.70;99.90
13328;DHT22;6733;51.044;3.746;2023-02-13T16:05:11;12.60;99.90
13328;DHT22;6733;51.044;3.746;2023-02-13T16:07:57;12.60;99.90
13328;DHT22;6733;51.044;3.746;2023-02-13T16:12:54;12.40;99.90
13328;DHT22;6733;51.044;3.746;2023-02-13T16:15:22;12.30;99.90
13328;DHT22;6733;51.044;3.746;2023-02-13T16:17:48;12.20;99.90
13328;DHT22;6733;51.044;3.746;2023-02-13T16:20:20;12.10;99.90
13328;DHT22;6733;51.044;3.746;2023-02-13T16:22:51;12.00;99.90
13328;DHT22;6733;51.044;3.746;2023-02-13T16:28:01;11.90;99.90
13328;DHT22;6733;51.044;3.746;2023-02-13T16:30:51;11.90;99.90
13328;DHT22;6733;51.044;3.746;2023-02-13T16:33:21;11.90;99.90
13328;DHT22;6733;51.044;3.746;2023-02-13T16:35:55;11.80;99.90
13328;DHT22;6733;51.044;3.746;2023-02-13T16:43:36;11.60;99.90
13328;DHT22;6733;51.044;3.746;2023-02-13T16:51:36;11.40;99.90
13328;DHT22;6733;51.044;3.746;2023-02-13T16:56:48;11.30;99.90
13328;DHT22;6733;51.044;3.746;2023-02-13T17:07:22;11.10;99.90
13328;DHT22;6733;51.044;3.746;2023-02-13T17:09:54;11.00;99.90
13328;DHT22;6733;51.044;3.746;2023-02-13T17:12:22;10.90;99.90
13328;DHT22;6733;51.044;3.746;2023-02-13T17:14:48;10.80;99.90
13328;DHT22;6733;51.044;3.746;2023-02-13T17:17:17;10.70;99.90
13328;DHT22;6733;51.044;3.746;2023-02-13T17:19:44;10.60;99.90
13328;DHT22;6733;51.044;3.746;2023-02-13T17:22:30;10.60;99.90
13328;DHT22;6733;51.044;3.746;2023-02-13T17:24:59;10.50;99.90
13328;DHT22;6733;51.044;3.746;2023-02-13T17:27:26;10.40;99.90
13328;DHT22;6733;51.044;3.746;2023-02-13T17:29:52;10.30;99.90
13328;DHT22;6733;51.044;3.746;2023-02-13T17:32:21;10.20;99.90
13328;DHT22;6733;51.044;3.746;2023-02-13T17:34:48;10.10;99.90
13328;DHT22;6733;51.044;3.746;2023-02-13T17:37:19;10.10;99.90
13328;DHT22;6733;51.044;3.746;2023-02-13T17:39:46;10.10;99.90
13328;DHT22;6733;51.044;3.746;2023-02-13T17:42:21;10.10;99.90
13328;DHT22;6733;51.044;3.746;2023-02-13T17:44:51;10.10;99.90
13328;DHT22;6733;51.044;3.746;2023-02-13T17:47:18;10.10;99.90
13328;DHT22;6733;51.044;3.746;2023-02-13T17:49:45;10.00;99.90
13328;DHT22;6733;51.044;3.746;2023-02-13T17:52:15;10.00;99.90
13328;DHT22;6733;51.044;3.746;2023-02-13T17:54:43;10.00;99.90
13328;DHT22;6733;51.044;3.746;2023-02-13T17:57:11;10.00;99.90
13328;DHT22;6733;51.044;3.746;2023-02-13T17:59:37;9.90;99.90
13328;DHT22;6733;51.044;3.746;2023-02-13T18:02:11;9.90;99.90
13328;DHT22;6733;51.044;3.746;2023-02-13T18:04:37;9.90;99.90
13328;DHT22;6733;51.044;3.746;2023-02-13T18:07:03;9.80;99.90
13328;DHT22;6733;51.044;3.746;2023-02-13T18:09:29;9.80;99.90
13328;DHT22;6733;51.044;3.746;2023-02-13T18:11:55;9.70;99.90
13328;DHT22;6733;51.044;3.746;2023-02-13T18:14:22;9.60;99.90
13328;DHT22;6733;51.044;3.746;2023-02-13T18:16:48;9.60;99.90
13328;DHT22;6733;51.044;3.746;2023-02-13T18:19:14;9.60;99.90
13328;DHT22;6733;51.044;3.746;2023-02-13T18:21:40;9.50;99.90
13328;DHT22;6733;51.044;3.746;2023-02-13T18:24:07;9.50;99.90
13328;DHT22;6733;51.044;3.746;2023-02-13T18:26:33;9.50;99.90
13328;DHT22;6733;51.044;3.746;2023-02-13T18:28:59;9.50;99.90
13328;DHT22;6733;51.044;3.746;2023-02-13T18:31:26;9.40;99.90
13328;DHT22;6733;51.044;3.746;2023-02-13T18:33:52;9.40;99.90
13328;DHT22;6733;51.044;3.746;2023-02-13T18:36:18;9.30;99.90
13328;DHT22;6733;51.044;3.746;2023-02-13T18:38:44;9.40;99.90
13328;DHT22;6733;51.044;3.746;2023-02-13T18:41:11;9.30;99.90
13328;DHT22;6733;51.044;3.746;2023-02-13T18:43:38;9.20;99.90
13328;DHT22;6733;51.044;3.746;2023-02-13T18:46:04;9.20;99.90
13328;DHT22;6733;51.044;3.746;2023-02-13T18:48:31;9.20;99.90
13328;DHT22;6733;51.044;3.746;2023-02-13T18:51:00;9.20;99.90
13328;DHT22;6733;51.044;3.746;2023-02-13T18:53:27;9.10;99.90
13328;DHT22;6733;51.044;3.746;2023-02-13T18:56:04;9.10;99.90
13328;DHT22;6733;51.044;3.746;2023-02-13T18:58:31;9.00;99.90
13328;DHT22;6733;51.044;3.746;2023-02-13T19:01:13;9.00;99.90
13328;DHT22;6733;51.044;3.746;2023-02-13T19:03:39;9.00;99.90
13328;DHT22;6733;51.044;3.746;2023-02-13T19:06:08;9.00;99.90
13328;DHT22;6733;51.044;3.746;2023-02-13T19:08:35;8.90;99.90
13328;DHT22;6733;51.044;3.746;2023-02-13T19:11:03;8.90;99.90
13328;DHT22;6733;51.044;3.746;2023-02-13T19:13:30;8.80;99.90
13328;DHT22;6733;51.044;3.746;2023-02-13T19:16:08;8.80;99.90
13328;DHT22;6733;51.044;3.746;2023-02-13T19:18:39;8.80;99.90
13328;DHT22;6733;51.044;3.746;2023-02-13T19:21:06;8.80;99.90
13328;DHT22;6733;51.044;3.746;2023-02-13T19:23:33;8.70;99.90